Impacts TAF Board INFO
FOR SITUATIONAL AWARENESS. NOT TO BE USED FOR FLIGHT PLANNING PURPOSES.
IDs:

KDEN - Denver Intl, CO, US

Issued at 0300 UTC 22 Nov 2017
Updated at 0323 UTC 22 Nov 2017
Potential Impact None Slight Moderate High
Time<<23/04Z 23/05Z 23/06Z 23/07Z 23/08Z 23/09Z 23/10Z 23/11Z 23/12Z 23/13Z 23/14Z 23/15Z 23/16Z
Type PRVL PRVL
VIS >6 >6
CIG 200 200
Cover BKN BKN
FltCat VFR VFR
WX -- --
WDir 210 210
WSpd 11 11
WGst -- --

Raw TAF
KDEN 220300Z 2203/2306 16007KT P6SM SCT220
  FM220400 20008KT P6SM FEW150 BKN220
  FM221500 24010KT P6SM SCT100 BKN220
  FM222000 30012G20KT P6SM SCT100 BKN200
  FM230200 21011KT P6SM FEW120 BKN200


METAR Board
Radar Display
Forecast Discussion

FOR SITUATIONAL AWARENESS. NOT TO BE USED FOR FLIGHT PLANNING PURPOSES.